createdAt,value
2019-05-01T00:01:18.081Z,22.20
2019-05-01T00:03:46.917Z,22.48
2019-05-01T00:06:15.560Z,19.53
2019-05-01T00:08:42.400Z,20.80
2019-05-01T00:11:09.180Z,21.40
2019-05-01T00:13:36.017Z,21.65
2019-05-01T00:16:02.913Z,22.98
2019-05-01T00:18:29.744Z,21.50
2019-05-01T00:20:56.628Z,21.97
2019-05-01T00:23:23.673Z,21.42
2019-05-01T00:25:50.456Z,22.85
2019-05-01T00:28:18.376Z,21.97
2019-05-01T00:30:45.228Z,21.70
2019-05-01T00:33:12.052Z,21.40
2019-05-01T00:35:38.831Z,20.80
2019-05-01T00:38:05.665Z,22.55
2019-05-01T00:40:32.456Z,20.43
2019-05-01T00:42:59.304Z,20.13
2019-05-01T00:45:26.089Z,20.30
2019-05-01T00:47:52.968Z,19.90
2019-05-01T00:50:19.761Z,19.42
2019-05-01T00:52:46.605Z,18.92
2019-05-01T00:55:31.520Z,19.87
2019-05-01T00:58:00.161Z,19.05
2019-05-01T01:00:42.608Z,18.82
2019-05-01T01:02:59.905Z,18.35
2019-05-01T01:05:26.739Z,19.17
2019-05-01T01:07:53.529Z,17.67
2019-05-01T01:10:20.367Z,16.70
2019-05-01T01:12:47.145Z,18.10
2019-05-01T01:15:13.985Z,18.87
2019-05-01T01:17:40.781Z,16.70
2019-05-01T01:20:07.610Z,18.00
2019-05-01T01:22:34.388Z,17.95
2019-05-01T01:25:01.524Z,16.35
2019-05-01T01:27:28.360Z,16.23
2019-05-01T01:29:55.140Z,16.00
2019-05-01T01:32:22.025Z,17.00
2019-05-01T01:34:48.852Z,18.30
2019-05-01T01:37:15.684Z,16.80
2019-05-01T01:39:42.718Z,16.70
2019-05-01T01:42:10.268Z,15.80
2019-05-01T01:44:50.937Z,17.07
2019-05-01T01:47:17.768Z,16.10
2019-05-01T01:49:44.548Z,16.32
2019-05-01T01:52:11.982Z,15.85
2019-05-01T01:54:38.756Z,16.20
2019-05-01T01:57:05.694Z,16.75
2019-05-01T01:59:32.472Z,15.68
2019-05-01T02:02:04.024Z,15.32
2019-05-01T02:04:38.423Z,15.80
2019-05-01T02:07:05.296Z,15.85
2019-05-01T02:09:32.076Z,16.25
2019-05-01T02:11:58.919Z,14.15
2019-05-01T02:14:25.696Z,15.43
2019-05-01T02:16:52.489Z,15.05
2019-05-01T02:19:19.352Z,15.20
2019-05-01T02:21:47.847Z,15.83
2019-05-01T02:24:14.773Z,15.20
2019-05-01T02:26:52.637Z,15.43
2019-05-01T02:29:23.265Z,15.00
2019-05-01T02:31:52.205Z,14.15
2019-05-01T02:34:19.641Z,15.03
2019-05-01T02:36:47.523Z,15.10
2019-05-01T02:39:17.465Z,15.98
2019-05-01T02:41:45.445Z,16.07
2019-05-01T02:44:15.896Z,14.80
2019-05-01T02:46:46.186Z,15.32
2019-05-01T02:49:31.633Z,15.25
2019-05-01T02:51:59.134Z,15.10
2019-05-01T02:54:26.452Z,15.10
2019-05-01T02:56:55.198Z,15.03
2019-05-01T02:59:24.283Z,14.27
2019-05-01T03:01:51.520Z,14.33
2019-05-01T03:04:19.101Z,13.85
2019-05-01T03:06:46.128Z,14.83
2019-05-01T03:09:13.025Z,13.85
2019-05-01T03:11:41.243Z,14.33
2019-05-01T03:14:14.893Z,14.10
2019-05-01T03:16:43.831Z,13.10
2019-05-01T03:19:13.472Z,12.82
2019-05-01T03:21:42.222Z,15.30
2019-05-01T03:24:11.600Z,13.25
2019-05-01T03:26:38.658Z,13.53
2019-05-01T03:29:06.544Z,13.90
2019-05-01T03:31:33.642Z,13.60
2019-05-01T03:34:00.488Z,13.75
2019-05-01T03:36:27.253Z,14.60
2019-05-01T03:38:54.410Z,14.10
2019-05-01T03:41:21.609Z,13.53
2019-05-01T03:43:49.684Z,13.45
2019-05-01T03:46:16.923Z,13.93
2019-05-01T03:48:44.353Z,13.35
2019-05-01T03:51:11.728Z,13.45
2019-05-01T03:53:38.935Z,14.00
2019-05-01T03:56:06.385Z,13.35
2019-05-01T03:58:33.257Z,12.80
2019-05-01T04:03:54.802Z,12.40
2019-05-01T04:06:21.989Z,12.98
2019-05-01T04:08:48.826Z,15.32
2019-05-01T04:11:15.909Z,15.00
2019-05-01T04:13:42.857Z,15.18
2019-05-01T04:16:09.938Z,14.00
2019-05-01T04:18:37.790Z,13.58
2019-05-01T04:21:07.581Z,14.18
2019-05-01T04:23:35.509Z,12.82
2019-05-01T04:26:02.303Z,15.32
2019-05-01T04:28:34.202Z,14.45
2019-05-01T04:31:03.029Z,13.98
2019-05-01T04:33:31.494Z,13.78
2019-05-01T04:36:17.070Z,13.80
2019-05-01T04:38:43.999Z,13.10
2019-05-01T04:41:10.832Z,13.38
2019-05-01T04:43:38.122Z,13.10
2019-05-01T04:46:05.002Z,14.55
2019-05-01T04:48:31.834Z,13.80
2019-05-01T04:50:59.073Z,14.00
2019-05-01T04:53:26.060Z,14.30
2019-05-01T04:55:53.228Z,13.03
2019-05-01T04:58:20.066Z,13.20
2019-05-01T05:00:46.893Z,12.80
2019-05-01T05:03:15.476Z,12.43
2019-05-01T05:05:43.063Z,11.97
2019-05-01T05:08:09.940Z,11.48
2019-05-01T05:10:37.167Z,13.15
2019-05-01T05:13:22.629Z,11.70
2019-05-01T05:15:51.221Z,11.10
2019-05-01T05:18:18.349Z,12.70
2019-05-01T05:20:45.324Z,12.93
2019-05-01T05:23:12.269Z,12.68
2019-05-01T05:25:39.926Z,13.95
2019-05-01T05:28:06.719Z,12.43
2019-05-01T05:30:35.461Z,13.00
2019-05-01T05:33:17.158Z,14.87
2019-05-01T05:35:36.669Z,14.60
2019-05-01T05:38:09.909Z,14.07
2019-05-01T05:40:37.532Z,13.20
2019-05-01T05:43:04.460Z,14.15
2019-05-01T05:45:33.331Z,14.30
2019-05-01T05:48:00.169Z,13.20
2019-05-01T05:50:33.241Z,14.53
2019-05-01T05:53:03.908Z,14.47
2019-05-01T05:55:34.700Z,14.10
2019-05-01T05:58:04.844Z,15.10
2019-05-01T06:00:52.090Z,14.78
2019-05-01T06:03:39.316Z,15.08
2019-05-01T06:06:24.672Z,14.90
2019-05-01T06:08:53.909Z,15.13
2019-05-01T06:11:29.640Z,16.07
2019-05-01T06:14:16.576Z,15.60
2019-05-01T06:16:52.138Z,16.00
2019-05-01T06:19:19.324Z,15.07
2019-05-01T06:22:10.223Z,15.00
2019-05-01T06:24:40.493Z,15.90
2019-05-01T06:27:08.883Z,16.27
2019-05-01T06:29:37.301Z,15.25
2019-05-01T06:32:04.534Z,16.93
2019-05-01T06:34:31.444Z,16.82
2019-05-01T06:36:58.611Z,16.02
2019-05-01T06:39:25.535Z,17.80
2019-05-01T06:41:52.865Z,15.93
2019-05-01T06:44:33.563Z,16.77
2019-05-01T06:47:10.070Z,17.10
2019-05-01T06:49:48.693Z,16.15
2019-05-01T06:52:20.164Z,17.05
2019-05-01T06:54:47.820Z,16.60
2019-05-01T06:57:15.704Z,16.62
2019-05-01T06:59:42.993Z,16.52
2019-05-01T07:02:15.876Z,16.80
2019-05-01T07:04:44.561Z,17.23
2019-05-01T07:07:24.698Z,18.07
2019-05-01T07:09:44.241Z,15.90
2019-05-01T07:12:13.337Z,16.90
2019-05-01T07:14:40.524Z,17.32
2019-05-01T07:17:08.881Z,15.32
2019-05-01T07:19:56.489Z,15.78
2019-05-01T07:22:23.692Z,16.30
2019-05-01T07:24:50.917Z,16.10
2019-05-01T07:27:18.831Z,16.40
2019-05-01T07:29:48.153Z,16.95
2019-05-01T07:32:15.181Z,15.90
2019-05-01T07:34:42.225Z,16.52
2019-05-01T07:37:09.037Z,15.35
2019-05-01T07:39:36.181Z,15.75
2019-05-01T07:42:21.510Z,16.10
2019-05-01T07:44:50.492Z,15.23
2019-05-01T07:47:30.592Z,16.65
2019-05-01T07:50:00.184Z,14.43
2019-05-01T07:52:27.780Z,15.70
2019-05-01T07:54:55.081Z,16.37
2019-05-01T07:57:23.126Z,15.50
2019-05-01T07:59:51.040Z,15.83
2019-05-01T08:02:17.826Z,16.27
2019-05-01T08:04:44.664Z,15.88
2019-05-01T08:07:11.450Z,17.67
2019-05-01T08:09:38.285Z,15.05
2019-05-01T08:12:05.125Z,16.55
2019-05-01T08:14:31.925Z,16.65
2019-05-01T08:16:58.744Z,16.45
2019-05-01T08:19:29.852Z,14.50
2019-05-01T08:22:01.669Z,15.48
2019-05-01T08:24:27.096Z,15.23
2019-05-01T08:26:53.952Z,15.40
2019-05-01T08:29:28.369Z,15.90
2019-05-01T08:32:09.320Z,16.37
2019-05-01T08:34:48.436Z,16.60
2019-05-01T08:37:06.677Z,17.80
2019-05-01T08:39:34.048Z,18.42
2019-05-01T08:42:03.152Z,17.90
2019-05-01T08:44:33.831Z,20.40
2019-05-01T08:47:11.053Z,19.92
2019-05-01T08:49:50.664Z,19.82
2019-05-01T08:52:17.164Z,19.12
2019-05-01T08:54:44.021Z,18.75
2019-05-01T08:57:10.813Z,18.80
2019-05-01T08:59:37.592Z,18.48
2019-05-01T09:02:09.295Z,16.63
2019-05-01T09:04:33.169Z,16.32
2019-05-01T09:06:59.984Z,17.62
2019-05-01T09:09:26.776Z,18.65
2019-05-01T09:11:54.721Z,17.87
2019-05-01T09:14:21.684Z,14.40
2019-05-01T09:16:48.545Z,15.00
2019-05-01T09:19:16.154Z,15.00
2019-05-01T09:21:42.936Z,16.40
2019-05-01T09:24:09.725Z,16.23
2019-05-01T09:26:45.295Z,14.68
2019-05-01T09:29:16.117Z,14.87
2019-05-01T09:31:42.965Z,15.33
2019-05-01T09:34:13.869Z,13.72
2019-05-01T09:36:38.377Z,12.90
2019-05-01T09:39:08.081Z,13.15
2019-05-01T09:41:38.497Z,14.35
2019-05-01T09:44:05.710Z,13.65
2019-05-01T09:46:32.565Z,11.90
2019-05-01T09:48:59.505Z,12.90
2019-05-01T09:51:47.504Z,14.50
2019-05-01T09:54:19.440Z,15.32
2019-05-01T09:56:46.277Z,14.80
2019-05-01T09:59:17.371Z,13.40
2019-05-01T10:01:41.799Z,14.95
2019-05-01T10:04:08.653Z,15.43
2019-05-01T10:06:35.428Z,13.60
2019-05-01T10:09:05.900Z,12.37
2019-05-01T10:11:35.874Z,12.33
2019-05-01T10:14:03.882Z,13.35
2019-05-01T10:16:30.033Z,13.13
2019-05-01T10:18:56.952Z,12.50
2019-05-01T10:21:27.284Z,14.03
2019-05-01T10:23:52.914Z,14.00
2019-05-01T10:26:24.081Z,13.83
2019-05-01T10:29:07.310Z,13.55
2019-05-01T10:31:42.858Z,13.35
2019-05-01T10:34:09.215Z,16.52
2019-05-01T10:36:37.868Z,12.90
2019-05-01T10:39:06.824Z,12.93
2019-05-01T10:41:33.683Z,14.20
2019-05-01T10:44:00.500Z,14.05
2019-05-01T10:46:27.288Z,13.45
2019-05-01T10:48:57.032Z,12.35
2019-05-01T10:51:22.773Z,11.68
2019-05-01T10:53:49.649Z,12.45
2019-05-01T10:56:16.537Z,13.00
2019-05-01T10:58:43.488Z,12.18
2019-05-01T11:01:12.053Z,10.43
2019-05-01T11:03:39.541Z,11.08
2019-05-01T11:06:06.943Z,11.63
2019-05-01T11:08:34.095Z,9.58
2019-05-01T11:11:01.164Z,13.35
2019-05-01T11:13:28.134Z,12.45
2019-05-01T11:15:55.007Z,11.68
2019-05-01T11:18:21.857Z,12.25
2019-05-01T11:20:48.857Z,11.80
2019-05-01T11:23:15.932Z,13.15
2019-05-01T11:25:44.674Z,11.18
2019-05-01T11:28:11.932Z,14.13
2019-05-01T11:30:38.897Z,12.60
2019-05-01T11:33:19.711Z,13.70
2019-05-01T11:35:50.851Z,16.30
2019-05-01T11:38:25.703Z,16.00
2019-05-01T11:41:09.963Z,14.15
2019-05-01T11:43:36.762Z,14.73
2019-05-01T11:46:03.732Z,11.85
2019-05-01T11:48:32.029Z,14.30
2019-05-01T11:50:59.000Z,12.45
2019-05-01T11:53:26.188Z,11.85
2019-05-01T11:55:53.189Z,13.93
2019-05-01T11:58:20.117Z,12.40
2019-05-01T12:00:48.693Z,12.40
2019-05-01T12:03:15.656Z,13.93
2019-05-01T12:05:42.843Z,17.12
2019-05-01T12:08:10.187Z,12.73
2019-05-01T12:10:37.275Z,16.30
2019-05-01T12:13:04.241Z,13.05
2019-05-01T12:15:31.175Z,11.97
2019-05-01T12:17:58.400Z,12.10
2019-05-01T12:20:25.267Z,11.85
2019-05-01T12:22:52.205Z,13.15
2019-05-01T12:25:19.157Z,14.40
2019-05-01T12:27:46.004Z,15.20
2019-05-01T12:30:15.310Z,16.12
2019-05-01T12:32:42.244Z,16.85
2019-05-01T12:35:09.366Z,14.93
2019-05-01T12:37:38.238Z,16.25
2019-05-01T12:40:09.824Z,17.60
2019-05-01T12:42:37.009Z,21.87
2019-05-01T12:45:09.707Z,14.87
2019-05-01T12:47:50.023Z,17.20
2019-05-01T12:50:17.195Z,14.40
2019-05-01T12:52:46.028Z,15.50
2019-05-01T12:55:20.542Z,14.33
2019-05-01T12:57:49.320Z,14.53
2019-05-01T13:00:17.978Z,12.53
2019-05-01T13:02:45.332Z,13.35
2019-05-01T13:05:12.175Z,12.63
2019-05-01T13:07:39.258Z,15.28
2019-05-01T13:10:07.164Z,14.90
2019-05-01T13:12:34.135Z,16.05
2019-05-01T13:15:01.066Z,16.02
2019-05-01T13:17:27.976Z,15.40
2019-05-01T13:19:54.809Z,16.02
2019-05-01T13:22:21.656Z,14.83
2019-05-01T13:24:51.390Z,14.47
2019-05-01T13:27:23.117Z,15.20
2019-05-01T13:29:54.526Z,15.20
2019-05-01T13:32:31.961Z,17.40
2019-05-01T13:34:58.721Z,17.07
2019-05-01T13:37:25.506Z,16.30
2019-05-01T13:39:52.549Z,14.53
2019-05-01T13:42:19.388Z,16.37
2019-05-01T13:44:46.354Z,13.50
2019-05-01T13:47:13.287Z,16.10
2019-05-01T13:49:40.179Z,14.28
2019-05-01T13:52:07.221Z,16.00
2019-05-01T13:54:34.087Z,15.87
2019-05-01T13:57:01.031Z,13.43
2019-05-01T13:59:27.892Z,14.20
2019-05-01T14:01:54.745Z,13.50
2019-05-01T14:04:22.810Z,14.40
2019-05-01T14:06:49.654Z,16.48
2019-05-01T14:09:18.465Z,14.87
2019-05-01T14:11:45.302Z,14.87
2019-05-01T14:14:12.367Z,14.73
2019-05-01T14:16:39.437Z,16.35
2019-05-01T14:19:06.517Z,15.58
2019-05-01T14:21:37.504Z,15.25
2019-05-01T14:24:08.821Z,15.23
2019-05-01T14:26:44.372Z,11.33
2019-05-01T14:29:11.353Z,14.00
2019-05-01T14:31:38.204Z,14.65
2019-05-01T14:34:05.124Z,14.23
2019-05-01T14:36:31.984Z,16.57
2019-05-01T14:38:58.930Z,18.27
2019-05-01T14:41:25.825Z,13.85
2019-05-01T14:43:52.729Z,12.63
2019-05-01T14:46:19.634Z,13.78
2019-05-01T14:48:46.540Z,15.55
2019-05-01T14:51:13.443Z,15.40
2019-05-01T14:53:40.285Z,12.43
2019-05-01T14:56:07.809Z,14.05
2019-05-01T14:58:34.597Z,13.08
2019-05-01T15:01:01.490Z,13.48
2019-05-01T15:03:28.282Z,15.28
2019-05-01T15:05:55.191Z,14.00
2019-05-01T15:08:22.068Z,16.93
2019-05-01T15:10:54.882Z,16.00
2019-05-01T15:13:23.558Z,13.45
2019-05-01T15:16:04.300Z,12.35
2019-05-01T15:18:35.713Z,12.35
2019-05-01T15:21:02.734Z,13.05
2019-05-01T15:23:29.596Z,12.63
2019-05-01T15:25:56.555Z,16.37
2019-05-01T15:28:23.498Z,9.70
2019-05-01T15:30:51.386Z,11.35
2019-05-01T15:33:18.210Z,13.40
2019-05-01T15:35:45.061Z,9.30
2019-05-01T15:38:11.966Z,11.05
2019-05-01T15:40:46.401Z,13.03
2019-05-01T15:43:26.860Z,12.37
2019-05-01T15:45:53.700Z,14.30
2019-05-01T15:48:21.025Z,11.05
2019-05-01T15:50:48.413Z,13.30
2019-05-01T15:53:15.252Z,13.83
2019-05-01T15:55:42.038Z,12.25
2019-05-01T15:58:08.853Z,11.65
2019-05-01T16:00:35.688Z,14.68
2019-05-01T16:03:02.465Z,15.72
2019-05-01T16:05:29.279Z,13.85
2019-05-01T16:08:08.980Z,13.58
2019-05-01T16:10:26.512Z,14.93
2019-05-01T16:12:56.199Z,13.30
2019-05-01T16:15:28.040Z,15.13
2019-05-01T16:17:55.325Z,13.18
2019-05-01T16:20:22.212Z,14.85
2019-05-01T16:22:49.008Z,12.55
2019-05-01T16:25:15.957Z,12.33
2019-05-01T16:27:42.755Z,11.30
2019-05-01T16:30:10.096Z,9.60
2019-05-01T16:32:36.880Z,10.60
2019-05-01T16:35:04.830Z,13.00
2019-05-01T16:37:31.609Z,14.38
2019-05-01T16:40:00.240Z,13.40
2019-05-01T16:42:28.833Z,10.98
2019-05-01T16:44:55.729Z,12.30
2019-05-01T16:47:22.570Z,12.43
2019-05-01T16:49:49.413Z,12.80
2019-05-01T16:52:18.006Z,11.53
2019-05-01T16:54:44.788Z,12.75
2019-05-01T16:57:13.244Z,13.30
2019-05-01T16:59:40.041Z,14.20
2019-05-01T17:02:14.474Z,16.17
2019-05-01T17:04:48.625Z,14.98
2019-05-01T17:07:33.869Z,12.13
2019-05-01T17:10:18.189Z,9.90
2019-05-01T17:12:49.365Z,10.88
2019-05-01T17:15:18.145Z,13.45
2019-05-01T17:17:45.500Z,12.47
2019-05-01T17:20:12.880Z,12.58
2019-05-01T17:22:39.750Z,14.73
2019-05-01T17:25:06.916Z,17.23
2019-05-01T17:27:33.712Z,13.00
2019-05-01T17:30:00.557Z,13.57
2019-05-01T17:32:27.397Z,12.10
2019-05-01T17:34:54.233Z,11.57
2019-05-01T17:37:21.109Z,13.65
2019-05-01T17:39:47.899Z,13.55
2019-05-01T17:42:14.725Z,13.62
2019-05-01T17:44:41.552Z,14.07
2019-05-01T17:47:08.344Z,12.47
2019-05-01T17:49:35.181Z,12.37
2019-05-01T17:52:02.041Z,15.50
2019-05-01T17:54:28.824Z,15.55
2019-05-01T17:56:55.849Z,12.80
2019-05-01T17:59:22.777Z,13.30
2019-05-01T18:01:57.128Z,12.63
2019-05-01T18:04:31.794Z,9.95
2019-05-01T18:06:58.830Z,12.40
2019-05-01T18:09:25.718Z,13.43
2019-05-01T18:11:53.608Z,13.40
2019-05-01T18:14:20.705Z,13.88
2019-05-01T18:16:47.603Z,15.88
2019-05-01T18:19:14.800Z,12.95
2019-05-01T18:21:46.735Z,11.30
2019-05-01T18:24:18.999Z,11.40
2019-05-01T18:26:52.365Z,12.60
2019-05-01T18:29:21.012Z,12.82
2019-05-01T18:31:47.796Z,12.35
2019-05-01T18:34:14.732Z,14.07
2019-05-01T18:36:55.031Z,16.02
2019-05-01T18:39:28.846Z,12.13
2019-05-01T18:42:01.219Z,13.38
2019-05-01T18:44:28.191Z,15.63
2019-05-01T18:46:55.198Z,14.90
2019-05-01T18:49:22.196Z,14.10
2019-05-01T18:51:49.345Z,14.10
2019-05-01T18:54:16.341Z,16.60
2019-05-01T18:56:43.145Z,14.60
2019-05-01T18:59:09.990Z,14.70
2019-05-01T19:01:36.803Z,14.28
2019-05-01T19:04:03.633Z,13.58
2019-05-01T19:06:40.533Z,15.53
2019-05-01T19:08:59.165Z,14.25
2019-05-01T19:11:26.021Z,15.32
2019-05-01T19:13:54.156Z,15.43
2019-05-01T19:16:21.020Z,13.72
2019-05-01T19:18:47.753Z,15.00
2019-05-01T19:21:15.800Z,14.20
2019-05-01T19:23:42.621Z,15.98
2019-05-01T19:26:12.248Z,17.25
2019-05-01T19:28:38.962Z,14.78
2019-05-01T19:31:06.102Z,14.38
2019-05-01T19:33:34.850Z,14.93
2019-05-01T19:36:02.708Z,13.32
2019-05-01T19:38:34.902Z,11.75
2019-05-01T19:41:03.497Z,11.30
2019-05-01T19:43:28.536Z,11.50
2019-05-01T19:45:56.057Z,11.10
2019-05-01T19:48:22.802Z,13.55
2019-05-01T19:50:49.692Z,11.28
2019-05-01T19:53:16.469Z,11.67
2019-05-01T19:55:44.873Z,12.80
2019-05-01T19:58:13.005Z,11.20
2019-05-01T20:00:49.414Z,10.60
2019-05-01T20:03:16.442Z,11.40
2019-05-01T20:05:43.526Z,10.15
2019-05-01T20:08:10.468Z,9.85
2019-05-01T20:10:37.830Z,9.58
2019-05-01T20:13:07.048Z,9.40
2019-05-01T20:15:33.563Z,9.88
2019-05-01T20:18:00.511Z,9.95
2019-05-01T20:20:29.058Z,9.45
2019-05-01T20:22:55.984Z,9.13
2019-05-01T20:25:24.472Z,10.72
2019-05-01T20:27:53.196Z,11.83
2019-05-01T20:30:20.386Z,11.90
2019-05-01T20:32:47.328Z,12.75
2019-05-01T20:35:14.296Z,16.52
2019-05-01T20:37:41.164Z,12.58
2019-05-01T20:40:11.340Z,11.93
2019-05-01T20:42:37.043Z,11.53
2019-05-01T20:45:12.674Z,11.28
2019-05-01T20:47:35.482Z,11.50
2019-05-01T20:50:05.198Z,11.25
2019-05-01T20:52:32.141Z,12.00
2019-05-01T20:54:59.074Z,12.13
2019-05-01T20:57:27.764Z,12.93
2019-05-01T20:59:54.724Z,12.90
2019-05-01T21:02:21.644Z,13.15
2019-05-01T21:04:56.104Z,13.20
2019-05-01T21:07:24.836Z,11.22
2019-05-01T21:09:57.875Z,10.63
2019-05-01T21:12:22.103Z,11.03
2019-05-01T21:14:49.617Z,12.55
2019-05-01T21:17:16.951Z,11.93
2019-05-01T21:19:44.136Z,12.20
2019-05-01T21:22:11.102Z,11.75
2019-05-01T21:24:37.950Z,11.65
2019-05-01T21:27:05.155Z,11.93
2019-05-01T21:29:31.957Z,12.03
2019-05-01T21:31:58.825Z,10.75
2019-05-01T21:34:25.653Z,11.35
2019-05-01T21:36:53.930Z,10.65
2019-05-01T21:39:22.708Z,11.65
2019-05-01T21:41:49.516Z,11.63
2019-05-01T21:44:16.310Z,10.38
2019-05-01T21:46:43.272Z,11.45
2019-05-01T21:49:10.131Z,10.82
2019-05-01T21:51:37.062Z,10.60
2019-05-01T21:54:05.600Z,11.05
2019-05-01T21:56:32.469Z,10.48
2019-05-01T21:58:59.555Z,9.90
2019-05-01T22:01:30.192Z,10.50
2019-05-01T22:03:57.043Z,9.80
2019-05-01T22:06:25.028Z,9.35
2019-05-01T22:08:51.864Z,9.70
2019-05-01T22:11:18.695Z,9.35
2019-05-01T22:13:45.475Z,9.53
2019-05-01T22:16:23.737Z,10.35
2019-05-01T22:19:01.512Z,9.35
2019-05-01T22:21:30.209Z,9.38
2019-05-01T22:24:11.964Z,9.90
2019-05-01T22:26:40.713Z,11.30
2019-05-01T22:29:09.300Z,8.80
2019-05-01T22:31:43.914Z,9.60
2019-05-01T22:34:18.594Z,9.90
2019-05-01T22:36:45.429Z,12.60
2019-05-01T22:39:12.508Z,12.68
2019-05-01T22:41:39.360Z,11.80
2019-05-01T22:44:06.156Z,14.97
2019-05-01T22:46:33.855Z,13.85
2019-05-01T22:49:01.628Z,11.33
2019-05-01T22:51:28.471Z,12.33
2019-05-01T22:53:55.310Z,10.53
2019-05-01T22:56:22.095Z,10.03
2019-05-01T22:58:48.929Z,9.60
2019-05-01T23:01:18.226Z,9.80
2019-05-01T23:03:46.268Z,10.20
2019-05-01T23:06:13.252Z,9.53
2019-05-01T23:08:40.200Z,10.10
2019-05-01T23:11:19.041Z,9.63
2019-05-01T23:13:36.408Z,9.63
2019-05-01T23:16:03.733Z,7.75
2019-05-01T23:18:30.568Z,7.20
2019-05-01T23:20:57.365Z,8.70
2019-05-01T23:23:24.128Z,7.60
2019-05-01T23:25:50.969Z,9.40
2019-05-01T23:28:17.748Z,8.70
2019-05-01T23:30:44.622Z,7.65
2019-05-01T23:33:11.478Z,7.20
2019-05-01T23:35:39.417Z,6.72
2019-05-01T23:38:06.253Z,6.97
2019-05-01T23:40:33.041Z,6.78
2019-05-01T23:42:59.889Z,6.20
2019-05-01T23:45:26.676Z,6.00
2019-05-01T23:47:53.452Z,6.50
2019-05-01T23:50:20.316Z,6.80
2019-05-01T23:52:47.081Z,6.05
2019-05-01T23:55:14.400Z,6.67
2019-05-01T23:57:41.679Z,6.67
